• Join FlightAware (Why Join?)
  • Login
  • US Flag 
12:04PM EDT


 

Airport Tracker/Info


-or-


 

Live Flight TrackerFlight Track Log ✈ FLG3667 ✈ 25-Apr-2013 ✈ KDTW - KGRR

Flight Track Log - Related Links

Times and Time Zones

All times are in EDT time to prevent confusion due to time zone crossing. See the FLG3667 flight status page for this flight to view local times or setup timezone preferences in your user account.

Time Position Orientation Groundspeed Altitude Reporting Facility
EDT Latitude Longitude Course Direction KTS MPH feet Rate Location/Type
04:00PM 42.2036 -83.3556 285° West 158 182 1,300  Level Cleveland Center
04:01PM 42.1864 -83.3828 230° Southwest 193 222 2,600 2,880 Climbing Cleveland Center
04:02PM 42.1497 -83.4286 223° Southwest 202 232 5,800 2,880 Climbing Cleveland Center
04:03PM 42.1458 -83.5069 266° West 248 285 8,200 1,920 Climbing Cleveland Center
04:04PM 42.3102 -83.7640 294° West  Level FlightAware Approximate
04:04PM 42.1869 -83.6069 299° West 306 352 10,000  Level Cleveland Center
04:05PM 42.3400 -83.8663 285° West  Level FlightAware Approximate
04:05PM 42.2281 -83.7072 299° West 347 399 11,200  Level Cleveland Center
04:06PM 42.3612 -83.9728 285° West  Level FlightAware Approximate
04:06PM 42.2750 -83.8217 299° West 348 400 12,000  Level Cleveland Center
04:07PM 42.3197 -83.9336 298° West 365 420 11,900  Descending Cleveland Center
04:08PM 42.3681 -84.0542 299° West 376 433 12,000  Climbing Cleveland Center
04:09PM 42.4147 -84.1664 299° West 371 427 12,000 -60 Level Cleveland Center
04:10PM 42.4547 -84.2869 294° West 354 407 11,900 -300 Descending Cleveland Center
04:11PM 42.4967 -84.4050 296° West 348 400 11,400 -600 Descending Cleveland Center
04:12PM 42.5386 -84.5231 296° West 348 400 10,800 -660 Descending Cleveland Center
04:13PM 42.5783 -84.6411 295° West 348 400 10,100 -420 Descending Cleveland Center
04:14PM 42.6164 -84.7425 297° West 348 400 10,000 -60 Descending Cleveland Center
04:15PM 42.6622 -84.8678 296° West 315 362 10,000 -1,080 Level Chicago Center
04:16PM 42.7053 -84.9631 302° West 254 292 7,600 -2,040 Descending Chicago Center
04:17PM 42.7417 -85.0408 303° West 247 284 5,900 -1,680 Descending Chicago Center
04:18PM 42.7761 -85.1158 302° West 239 275 4,200 -1,380 Descending Chicago Center
04:19PM 42.8111 -85.1911 302° West 237 273 3,100 -600 Descending Chicago Center
04:20PM 42.8414 -85.2583 302° West 225 259 3,000 -60 Descending Chicago Center
04:21PM 42.8661 -85.3133 302° West 194 223 3,000  Level Chicago Center